Terminal Aerodrome Forecast
Issued by NWS Sterling, VA

Current Version | Previous Version | Graphics & Text | Print | Product List | Glossary On
Versions: 1 2 3 4 5 6 7 8 9 10 11 12 13 14 15 16 17 18 19 20 21 22
000
FTUS41 KLWX 192338
TAFIAD
TAF
KIAD 192338Z 2000/2106 31017G29KT P6SM BKN050
     FM200200 31014G24KT P6SM SCT050
     FM200600 31010G17KT P6SM FEW250
     FM201400 32014G25KT P6SM FEW050
     FM202300 33007KT P6SM SKC=

USA.gov is the U.S. government's official web portal to all federal, state and local government web resources and services.